Time;durP1;ratioP1;P1;durP2;ratioP2;P2;SDS_P1;SDS_P2;PMS_P1;PMS_P2;Temp;Humidity;BMP_temperature;BMP_pressure;BME280_temperature;BME280_humidity;BME280_pressure;Samples;Min_cycle;Max_cycle;Signal;HPM_P1;HPM_P2
2023/12/16 00:00:35;;;;;;;19.52;7.47;;;;;;;6.73;100.00;103838.44;5055592;28;20541;-80
2023/12/16 00:03:01;;;;;;;16.10;6.35;;;;;;;6.74;100.00;103840.19;5049790;28;20128;-80
2023/12/16 00:05:26;;;;;;;20.95;7.13;;;;;;;6.74;100.00;103847.16;5050541;28;20102;-80
2023/12/16 00:07:51;;;;;;;17.90;6.95;;;;;;;6.70;100.00;103838.47;5049284;28;20017;-81
2023/12/16 00:10:17;;;;;;;18.70;7.20;;;;;;;6.72;100.00;103847.19;5049277;28;20047;-81
2023/12/16 00:12:42;;;;;;;18.80;6.55;;;;;;;6.73;100.00;103851.53;5050393;28;20113;-81
2023/12/16 00:15:11;;;;;;;16.75;6.78;;;;;;;6.71;100.00;103842.81;5061980;28;21897;-81
2023/12/16 00:17:36;;;;;;;17.30;6.80;;;;;;;6.73;100.00;103845.44;5058263;28;20542;-81
2023/12/16 00:20:03;;;;;;;19.65;6.70;;;;;;;6.71;100.00;103848.06;5049547;28;20150;-81
2023/12/16 00:22:29;;;;;;;21.27;7.22;;;;;;;6.72;100.00;103839.31;5067331;28;20028;-81
2023/12/16 00:24:54;;;;;;;18.38;6.22;;;;;;;6.73;100.00;103841.06;5062722;28;20445;-81
2023/12/16 00:27:20;;;;;;;17.42;6.18;;;;;;;6.71;100.00;103832.34;5049634;28;20020;-81
2023/12/16 00:29:46;;;;;;;17.98;5.80;;;;;;;6.73;100.00;103827.09;5050107;28;20028;-81
2023/12/16 00:32:11;;;;;;;17.50;6.10;;;;;;;6.74;100.00;103839.31;5053242;28;20526;-82
2023/12/16 00:34:36;;;;;;;19.70;5.95;;;;;;;6.73;100.00;103827.97;5057323;28;20487;-81
2023/12/16 00:37:05;;;;;;;16.35;5.70;;;;;;;6.74;100.00;103829.72;5064819;28;20422;-81
2023/12/16 00:39:31;;;;;;;17.95;5.72;;;;;;;6.76;100.00;103827.06;5066205;28;20411;-82
2023/12/16 00:41:56;;;;;;;16.67;6.10;;;;;;;6.75;100.00;103822.72;5050824;28;20029;-82
2023/12/16 00:44:21;;;;;;;13.43;5.70;;;;;;;6.76;100.00;103822.72;5052520;28;20033;-82
2023/12/16 00:46:47;;;;;;;19.67;6.28;;;;;;;6.76;100.00;103814.00;5067596;28;20085;-82
2023/12/16 00:49:12;;;;;;;17.80;5.93;;;;;;;6.76;100.00;103809.63;5067266;28;20032;-82
2023/12/16 00:51:37;;;;;;;19.85;5.88;;;;;;;6.76;100.00;103808.75;5063638;28;20499;-81
2023/12/16 00:54:03;;;;;;;17.60;5.80;;;;;;;6.75;100.00;103812.25;5045959;28;20013;-82
2023/12/16 00:56:28;;;;;;;17.30;5.30;;;;;;;6.74;100.00;103819.25;5055373;28;20028;-80
2023/12/16 00:58:54;;;;;;;17.23;5.85;;;;;;;6.74;100.00;103821.88;5067649;28;20032;-80
2023/12/16 01:01:19;;;;;;;18.98;5.30;;;;;;;6.75;100.00;103817.50;5067585;28;20016;-80
2023/12/16 01:03:45;;;;;;;16.35;5.03;;;;;;;6.74;100.00;103821.00;5067597;28;20115;-80
2023/12/16 01:06:10;;;;;;;16.88;5.13;;;;;;;6.74;100.00;103815.75;5067536;28;20107;-80
2023/12/16 01:08:36;;;;;;;17.63;5.63;;;;;;;6.73;100.00;103820.13;5060534;28;20083;-80
2023/12/16 01:11:01;;;;;;;17.70;5.65;;;;;;;6.73;100.00;103825.38;5047921;28;20091;-80
2023/12/16 01:13:27;;;;;;;13.43;5.07;;;;;;;6.73;100.00;103830.59;5067136;28;20477;-80
2023/12/16 01:15:52;;;;;;;14.23;5.72;;;;;;;6.73;100.00;103825.38;5067612;28;20052;-80
2023/12/16 01:18:18;;;;;;;19.08;5.72;;;;;;;6.73;100.00;103827.97;5055249;28;20063;-80
2023/12/16 01:20:43;;;;;;;19.23;5.95;;;;;;;6.73;100.00;103830.59;5048368;28;20021;-81
2023/12/16 01:23:09;;;;;;;15.45;5.55;;;;;;;6.73;100.00;103816.66;5050007;28;20031;-80
2023/12/16 01:25:34;;;;;;;19.40;5.93;;;;;;;6.73;100.00;103824.50;5054623;28;20036;-81
2023/12/16 01:27:59;;;;;;;20.15;5.47;;;;;;;6.72;100.00;103826.25;5058336;28;20048;-81
2023/12/16 01:30:25;;;;;;;15.10;5.40;;;;;;;6.73;100.00;103822.75;5056515;28;20029;-81
2023/12/16 01:32:51;;;;;;;17.95;5.65;;;;;;;6.74;100.00;103832.31;5068349;28;20077;-80
2023/12/16 01:35:17;;;;;;;20.35;5.95;;;;;;;6.72;100.00;103828.84;5063434;28;20039;-80
2023/12/16 01:37:42;;;;;;;13.38;5.03;;;;;;;6.71;100.00;103810.56;5055072;28;20029;-81
2023/12/16 01:40:08;;;;;;;17.92;5.50;;;;;;;6.71;100.00;103811.44;5061091;28;20029;-80
2023/12/16 01:42:33;;;;;;;13.77;5.10;;;;;;;6.70;100.00;103796.63;5063471;28;20056;-81
2023/12/16 01:44:59;;;;;;;16.75;4.90;;;;;;;6.69;100.00;103805.34;5066778;28;20081;-80
2023/12/16 01:47:25;;;;;;;16.58;5.18;;;;;;;6.69;100.00;103802.72;5064606;28;20383;-80
2023/12/16 01:49:51;;;;;;;17.13;5.15;;;;;;;6.70;100.00;103811.44;5051234;28;20031;-80
2023/12/16 01:52:17;;;;;;;17.63;5.43;;;;;;;6.68;100.00;103813.22;5047082;28;20024;-81
2023/12/16 01:54:42;;;;;;;14.55;4.68;;;;;;;6.65;100.00;103811.50;5058442;28;20041;-81
2023/12/16 01:57:08;;;;;;;15.32;5.32;;;;;;;6.66;100.00;103801.91;5066005;28;20035;-80
2023/12/16 01:59:33;;;;;;;29.15;5.68;;;;;;;6.63;100.00;103818.50;5068897;28;20482;-80
2023/12/16 02:01:59;;;;;;;17.63;5.15;;;;;;;6.63;100.00;103813.25;5058173;28;20510;-80
2023/12/16 02:04:26;;;;;;;17.40;5.47;;;;;;;6.64;100.00;103820.22;5069802;28;20024;-80
2023/12/16 02:06:51;;;;;;;15.15;5.43;;;;;;;6.63;100.00;103817.63;5059390;28;20025;-81
2023/12/16 02:09:18;;;;;;;17.60;5.35;;;;;;;6.63;100.00;103813.25;5050987;28;20559;-80
2023/12/16 02:11:44;;;;;;;19.25;5.40;;;;;;;6.62;100.00;103811.53;5051586;28;20094;-81
2023/12/16 02:14:09;;;;;;;18.17;5.65;;;;;;;6.61;100.00;103807.19;5062832;28;20104;-81
2023/12/16 02:16:36;;;;;;;13.35;4.95;;;;;;;6.60;100.00;103805.44;5070607;28;20440;-81
2023/12/16 02:19:03;;;;;;;14.23;4.82;;;;;;;6.58;100.00;103805.47;5071989;28;20016;-80
2023/12/16 02:21:28;;;;;;;15.40;5.30;;;;;;;6.52;100.00;103816.00;5065896;28;20044;-81
2023/12/16 02:23:53;;;;;;;15.68;4.82;;;;;;;6.48;100.00;103813.41;5056509;28;20469;-80
2023/12/16 02:26:19;;;;;;;13.95;5.28;;;;;;;6.44;100.00;103816.94;5051836;28;20028;-81
2023/12/16 02:28:44;;;;;;;17.05;4.82;;;;;;;6.39;100.00;103814.34;5052110;28;20024;-81
2023/12/16 02:31:09;;;;;;;17.08;5.53;;;;;;;6.34;100.00;103808.28;5054288;28;20041;-81
2023/12/16 02:33:35;;;;;;;24.58;6.20;;;;;;;6.34;100.00;103800.44;5068743;28;20040;-81
2023/12/16 02:36:00;;;;;;;14.50;5.28;;;;;;;6.28;100.00;103806.59;5071120;28;20078;-81
2023/12/16 02:38:26;;;;;;;12.93;4.75;;;;;;;6.26;100.00;103803.13;5069311;28;20027;-81
2023/12/16 02:40:51;;;;;;;17.83;5.88;;;;;;;6.23;100.00;103810.13;5066868;28;20040;-81
2023/12/16 02:43:17;;;;;;;18.33;5.72;;;;;;;6.19;100.00;103811.91;5067893;28;20023;-81
2023/12/16 02:45:42;;;;;;;17.08;5.97;;;;;;;6.14;100.00;103815.44;5069838;28;20502;-81
2023/12/16 02:48:08;;;;;;;14.25;5.50;;;;;;;6.10;100.00;103822.44;5068731;28;20039;-81
2023/12/16 02:50:33;;;;;;;19.55;6.07;;;;;;;6.09;100.00;103831.16;5056393;28;20027;-82
2023/12/16 02:52:59;;;;;;;18.60;5.80;;;;;;;6.09;100.00;103818.09;5064891;28;20384;-81
2023/12/16 02:55:25;;;;;;;17.48;6.07;;;;;;;6.08;100.00;103823.34;5068174;28;20401;-81
2023/12/16 02:57:50;;;;;;;15.57;5.53;;;;;;;6.06;100.00;103820.72;5069539;28;20024;-81
2023/12/16 03:00:16;;;;;;;17.65;5.20;;;;;;;6.04;100.00;103817.25;5065852;28;20020;-81
2023/12/16 03:02:41;;;;;;;16.50;5.10;;;;;;;6.06;100.00;103814.63;5067742;28;20103;-81
2023/12/16 03:05:06;;;;;;;17.98;5.43;;;;;;;6.06;100.00;103810.28;5068537;28;20039;-81
2023/12/16 03:07:33;;;;;;;14.55;5.80;;;;;;;6.06;100.00;103809.41;5052237;28;20032;-82
2023/12/16 03:09:58;;;;;;;15.23;5.45;;;;;;;6.04;100.00;103805.94;5051637;28;20404;-81
2023/12/16 03:12:24;;;;;;;16.83;5.57;;;;;;;5.99;100.00;103800.72;5058652;28;20029;-81
2023/12/16 03:14:50;;;;;;;19.02;6.53;;;;;;;5.98;100.00;103801.59;5062884;28;20047;-81
2023/12/16 03:17:18;;;;;;;17.85;6.38;;;;;;;5.95;100.00;103805.09;5062506;28;20024;-81
2023/12/16 03:19:43;;;;;;;15.75;5.68;;;;;;;5.94;100.00;103800.75;5057719;28;20033;-81
2023/12/16 03:22:09;;;;;;;15.30;5.93;;;;;;;5.94;100.00;103802.50;5053089;28;20024;-81
2023/12/16 03:24:34;;;;;;;22.52;5.95;;;;;;;5.93;100.00;103808.59;5048866;28;20028;-81
2023/12/16 03:27:00;;;;;;;19.05;5.70;;;;;;;5.93;100.00;103804.25;5050689;28;20067;-81
2023/12/16 03:29:25;;;;;;;13.45;5.53;;;;;;;5.95;100.00;103806.84;5054443;28;20024;-81
2023/12/16 03:31:50;;;;;;;15.35;5.85;;;;;;;5.93;100.00;103799.03;5068874;28;20064;-81
2023/12/16 03:34:16;;;;;;;16.35;6.00;;;;;;;5.96;100.00;103804.22;5069471;28;20024;-81
2023/12/16 03:36:41;;;;;;;19.92;5.85;;;;;;;5.98;100.00;103801.59;5060496;28;20548;-81
2023/12/16 03:39:07;;;;;;;18.25;6.07;;;;;;;5.99;100.00;103803.34;5063582;28;20104;-81
2023/12/16 03:41:34;;;;;;;14.55;5.72;;;;;;;5.98;100.00;103804.22;5057159;28;20031;-81
2023/12/16 03:43:59;;;;;;;17.50;5.95;;;;;;;6.02;100.00;103811.19;5056767;28;20099;-81
2023/12/16 03:46:26;;;;;;;14.98;5.47;;;;;;;6.04;100.00;103805.94;5069041;28;20086;-81
2023/12/16 03:48:52;;;;;;;16.30;5.95;;;;;;;6.03;100.00;103805.06;5056062;28;20371;-81
2023/12/16 03:51:17;;;;;;;16.30;6.15;;;;;;;6.06;100.00;103810.28;5065716;28;20089;-81
2023/12/16 03:53:43;;;;;;;19.35;6.25;;;;;;;6.09;100.00;103805.03;5050977;28;20499;-81
2023/12/16 03:56:08;;;;;;;26.17;6.05;;;;;;;6.12;100.00;103814.59;5066436;28;20078;-81
2023/12/16 03:58:34;;;;;;;16.67;6.30;;;;;;;6.14;100.00;103821.53;5067388;28;20492;-81
2023/12/16 04:00:59;;;;;;;22.23;5.97;;;;;;;6.16;100.00;103821.53;5055519;28;20476;-81
2023/12/16 04:03:24;;;;;;;19.05;6.03;;;;;;;6.18;100.00;103819.75;5052365;28;20039;-81
2023/12/16 04:05:50;;;;;;;18.65;6.32;;;;;;;6.21;100.00;103814.50;5051217;28;20028;-81
2023/12/16 04:08:15;;;;;;;16.33;5.97;;;;;;;6.23;100.00;103812.75;5069216;28;20366;-81
2023/12/16 04:10:41;;;;;;;14.90;5.85;;;;;;;6.25;100.00;103814.47;5065818;28;20055;-81
2023/12/16 04:13:07;;;;;;;19.73;6.13;;;;;;;6.28;100.00;103824.91;5051897;28;20025;-81
2023/12/16 04:15:32;;;;;;;18.00;6.07;;;;;;;6.31;100.00;103825.75;5049461;28;20028;-81
2023/12/16 04:17:58;;;;;;;18.05;6.22;;;;;;;6.33;100.00;103821.38;5048980;28;20025;-81
2023/12/16 04:20:23;;;;;;;18.77;6.22;;;;;;;6.35;100.00;103819.63;5047155;28;20566;-81
2023/12/16 04:22:48;;;;;;;21.27;6.45;;;;;;;6.36;100.00;103816.13;5049375;28;20436;-81
2023/12/16 04:25:14;;;;;;;18.42;5.75;;;;;;;6.37;100.00;103807.41;5052782;28;20103;-81
2023/12/16 04:27:39;;;;;;;23.00;6.50;;;;;;;6.38;100.00;103822.19;5066106;28;20088;-81
2023/12/16 04:30:05;;;;;;;20.90;6.03;;;;;;;6.38;100.00;103816.97;5053634;28;20111;-81
2023/12/16 04:32:30;;;;;;;18.35;5.82;;;;;;;6.37;100.00;103804.78;5048760;28;20084;-80
2023/12/16 04:34:56;;;;;;;19.73;6.20;;;;;;;6.35;100.00;103803.94;5049471;28;20048;-80
2023/12/16 04:37:21;;;;;;;20.40;6.00;;;;;;;6.34;100.00;103802.19;5053118;28;20529;-80
2023/12/16 04:39:47;;;;;;;22.70;6.07;;;;;;;6.32;100.00;103817.03;5063041;28;20055;-81
2023/12/16 04:42:12;;;;;;;17.58;5.78;;;;;;;6.27;100.00;103804.88;5065977;28;20036;-80
2023/12/16 04:44:37;;;;;;;16.45;5.80;;;;;;;6.24;100.00;103799.66;5060254;28;20036;-81
2023/12/16 04:47:04;;;;;;;16.65;6.80;;;;;;;6.24;100.00;103791.81;5060670;28;20025;-81
2023/12/16 04:49:29;;;;;;;19.88;6.35;;;;;;;6.23;100.00;103795.31;5050340;28;20503;-80
2023/12/16 04:51:54;;;;;;;19.80;6.53;;;;;;;6.21;100.00;103788.38;5061591;28;20024;-81
2023/12/16 04:54:20;;;;;;;17.55;6.25;;;;;;;6.20;100.00;103797.97;5051616;28;20033;-80
2023/12/16 04:56:47;;;;;;;18.23;6.15;;;;;;;6.17;100.00;103799.72;5052313;28;20028;-81
2023/12/16 04:59:13;;;;;;;19.20;6.63;;;;;;;6.14;100.00;103795.41;5068856;28;20382;-80
2023/12/16 05:01:38;;;;;;;17.35;5.95;;;;;;;6.12;100.00;103789.31;5053350;28;20025;-80
2023/12/16 05:04:04;;;;;;;17.35;5.75;;;;;;;6.08;100.00;103798.06;5065691;28;20028;-80
2023/12/16 05:06:29;;;;;;;17.02;6.30;;;;;;;6.04;100.00;103798.97;5052422;28;20056;-81
2023/12/16 05:08:54;;;;;;;20.05;5.88;;;;;;;6.02;100.00;103794.63;5049982;28;20351;-80
2023/12/16 05:11:20;;;;;;;16.30;5.63;;;;;;;5.97;100.00;103799.88;5048258;28;20123;-80
2023/12/16 05:13:45;;;;;;;20.02;6.43;;;;;;;5.94;100.00;103797.28;5048948;28;20024;-81
2023/12/16 05:16:10;;;;;;;18.35;6.18;;;;;;;5.90;100.00;103798.19;5065956;28;20055;-81
2023/12/16 05:18:36;;;;;;;18.45;6.03;;;;;;;5.88;100.00;103803.38;5066504;28;20029;-81
2023/12/16 05:21:01;;;;;;;16.15;5.53;;;;;;;5.87;100.00;103803.41;5064322;28;20033;-81
2023/12/16 05:23:27;;;;;;;17.98;5.78;;;;;;;5.85;100.00;103805.16;5060967;28;20594;-81
2023/12/16 05:25:53;;;;;;;23.38;6.15;;;;;;;5.82;100.00;103806.03;5057451;28;20025;-81
2023/12/16 05:28:18;;;;;;;19.92;6.57;;;;;;;5.80;100.00;103813.03;5057566;28;20043;-81
2023/12/16 05:30:43;;;;;;;19.30;5.93;;;;;;;5.78;100.00;103819.13;5066339;28;20040;-80
2023/12/16 05:33:09;;;;;;;20.33;5.85;;;;;;;5.74;100.00;103817.44;5056207;28;20056;-81
2023/12/16 05:35:34;;;;;;;21.02;6.05;;;;;;;5.68;100.00;103813.09;5066533;28;20025;-82
2023/12/16 05:37:59;;;;;;;21.33;6.55;;;;;;;5.67;100.00;103811.38;5054346;28;20033;-81
2023/12/16 05:40:25;;;;;;;21.92;5.95;;;;;;;5.63;100.00;103810.53;5065146;28;20107;-81
2023/12/16 05:42:50;;;;;;;23.98;6.50;;;;;;;5.61;100.00;103816.63;5069587;28;20066;-81
2023/12/16 05:45:16;;;;;;;20.75;6.18;;;;;;;5.59;100.00;103816.63;5055065;28;20021;-81
2023/12/16 05:47:41;;;;;;;20.63;6.10;;;;;;;5.56;100.00;103824.47;5059915;28;20388;-81
2023/12/16 05:50:10;;;;;;;21.17;6.47;;;;;;;5.54;100.00;103820.13;5063114;28;20024;-81
2023/12/16 05:52:37;;;;;;;17.05;6.20;;;;;;;5.51;100.00;103822.75;5051861;28;21006;-81
2023/12/16 05:55:02;;;;;;;22.38;5.97;;;;;;;5.49;100.00;103817.53;5052888;28;20051;-81
2023/12/16 05:57:28;;;;;;;25.15;7.13;;;;;;;5.45;100.00;103814.97;5053902;28;20029;-81
2023/12/16 05:59:53;;;;;;;19.08;6.65;;;;;;;5.43;100.00;103807.13;5058149;28;20029;-82
2023/12/16 06:02:19;;;;;;;19.52;6.00;;;;;;;5.42;100.00;103799.31;5062652;28;20029;-81
2023/12/16 06:04:45;;;;;;;21.33;6.68;;;;;;;5.39;100.00;103794.97;5051411;28;20029;-81
2023/12/16 06:07:10;;;;;;;19.50;6.55;;;;;;;5.39;100.00;103794.97;5062336;28;20028;-81
2023/12/16 06:09:35;;;;;;;17.58;5.63;;;;;;;5.37;100.00;103801.06;5070514;28;20066;-81
2023/12/16 06:12:01;;;;;;;17.75;6.57;;;;;;;5.32;100.00;103799.38;5070167;28;20044;-81
2023/12/16 06:14:26;;;;;;;23.33;6.50;;;;;;;5.31;100.00;103813.28;5058314;28;20119;-81
2023/12/16 06:16:51;;;;;;;19.55;6.50;;;;;;;5.29;100.00;103817.66;5051429;28;20036;-81
2023/12/16 06:19:17;;;;;;;21.23;6.32;;;;;;;5.27;100.00;103815.91;5062682;28;20098;-81
2023/12/16 06:21:42;;;;;;;18.45;6.13;;;;;;;5.28;100.00;103815.06;5072745;28;20025;-81
2023/12/16 06:24:10;;;;;;;18.80;6.55;;;;;;;5.26;100.00;103811.56;5071113;28;20042;-81
2023/12/16 06:26:36;;;;;;;21.13;6.85;;;;;;;5.26;100.00;103814.19;5068850;28;20023;-81
2023/12/16 06:29:01;;;;;;;17.42;5.75;;;;;;;5.26;100.00;103804.63;5060906;28;20021;-81
2023/12/16 06:31:29;;;;;;;17.98;5.75;;;;;;;5.25;100.00;103808.09;5049188;28;20098;-81
2023/12/16 06:33:55;;;;;;;17.55;5.68;;;;;;;5.25;100.00;103799.41;5050058;28;20461;-81
2023/12/16 06:36:20;;;;;;;22.42;6.30;;;;;;;5.24;100.00;103803.75;5069363;28;20051;-81
2023/12/16 06:38:45;;;;;;;19.83;5.60;;;;;;;5.25;100.00;103807.22;5067040;28;20028;-81
2023/12/16 06:41:11;;;;;;;18.70;6.40;;;;;;;5.25;100.00;103810.72;5069247;28;20033;-81
2023/12/16 06:43:36;;;;;;;16.95;5.63;;;;;;;5.26;100.00;103815.06;5062478;28;20060;-81
2023/12/16 06:46:02;;;;;;;16.90;5.97;;;;;;;5.23;100.00;103808.97;5057652;28;20392;-81
2023/12/16 06:48:27;;;;;;;19.23;6.00;;;;;;;5.23;100.00;103804.63;5063855;28;20039;-81
2023/12/16 06:50:57;;;;;;;16.98;5.50;;;;;;;5.20;100.00;103804.66;5069128;28;20016;-81
2023/12/16 06:53:23;;;;;;;18.13;6.30;;;;;;;5.20;100.00;103811.56;5051213;28;20055;-81
2023/12/16 06:55:48;;;;;;;19.92;6.03;;;;;;;5.17;100.00;103804.63;5065753;28;20496;-81
2023/12/16 06:58:13;;;;;;;25.58;5.90;;;;;;;5.18;100.00;103810.72;5059124;28;20650;-81
2023/12/16 07:00:39;;;;;;;20.50;6.13;;;;;;;5.16;100.00;103815.94;5055502;28;20108;-81
2023/12/16 07:03:04;;;;;;;18.20;6.32;;;;;;;5.16;100.00;103818.56;5068439;28;20016;-81
2023/12/16 07:05:32;;;;;;;18.55;6.28;;;;;;;5.17;100.00;103816.81;5069188;28;20029;-81
2023/12/16 07:07:58;;;;;;;19.40;5.78;;;;;;;5.15;100.00;103816.81;5067921;28;20024;-81
2023/12/16 07:10:23;;;;;;;22.83;6.30;;;;;;;5.14;100.00;103822.03;5049601;28;20033;-81
2023/12/16 07:12:49;;;;;;;18.50;5.80;;;;;;;5.12;100.00;103827.28;5050093;28;20025;-81
2023/12/16 07:15:14;;;;;;;20.75;6.20;;;;;;;5.11;100.00;103822.91;5068825;28;20028;-80
2023/12/16 07:17:40;;;;;;;14.93;5.78;;;;;;;5.09;100.00;103826.41;5056139;28;20052;-80
2023/12/16 07:20:07;;;;;;;19.73;5.88;;;;;;;5.08;100.00;103832.50;5070053;28;20380;-81
2023/12/16 07:22:32;;;;;;;20.48;5.68;;;;;;;5.08;100.00;103829.91;5063453;28;20036;-81
2023/12/16 07:24:58;;;;;;;18.20;5.43;;;;;;;5.08;100.00;103830.75;5070445;28;20020;-81
2023/12/16 07:27:23;;;;;;;18.83;6.15;;;;;;;5.07;100.00;103829.03;5068048;28;20396;-81
2023/12/16 07:29:49;;;;;;;19.52;6.03;;;;;;;5.07;100.00;103830.75;5069438;28;20063;-81
2023/12/16 07:32:14;;;;;;;22.85;6.30;;;;;;;5.08;100.00;103832.50;5068745;28;20041;-81
2023/12/16 07:34:40;;;;;;;18.08;5.57;;;;;;;5.07;100.00;103833.38;5068407;28;20029;-81
2023/12/16 07:37:06;;;;;;;15.80;5.70;;;;;;;5.08;100.00;103842.94;5069354;28;20476;-81
2023/12/16 07:39:31;;;;;;;18.60;5.90;;;;;;;5.04;100.00;103845.56;5067736;28;20090;-79
2023/12/16 07:41:57;;;;;;;19.35;5.70;;;;;;;5.06;100.00;103849.91;5067454;28;20266;-80
2023/12/16 07:44:22;;;;;;;15.45;5.35;;;;;;;5.03;100.00;103838.59;5065925;28;20109;-80
2023/12/16 07:46:47;;;;;;;18.27;5.68;;;;;;;5.03;100.00;103843.81;5067532;28;20494;-80
2023/12/16 07:49:13;;;;;;;22.58;6.00;;;;;;;5.01;100.00;103848.19;5066342;28;20487;-80
2023/12/16 07:51:38;;;;;;;16.48;5.32;;;;;;;5.01;100.00;103848.19;5068198;28;20024;-80
2023/12/16 07:54:03;;;;;;;17.05;5.50;;;;;;;5.00;100.00;103841.22;5066090;28;20020;-81
2023/12/16 07:56:29;;;;;;;20.50;5.65;;;;;;;5.02;100.00;103846.44;5066214;28;20498;-81
2023/12/16 07:58:57;;;;;;;19.85;5.85;;;;;;;5.03;100.00;103849.03;5069422;28;20140;-81
2023/12/16 08:01:22;;;;;;;20.73;5.65;;;;;;;5.08;100.00;103850.78;5066614;28;20024;-81
2023/12/16 08:03:48;;;;;;;17.85;5.63;;;;;;;5.11;100.00;103845.53;5068585;28;20055;-81
2023/12/16 08:06:17;;;;;;;19.80;5.28;;;;;;;5.13;100.00;103855.09;5068959;28;20023;-82
2023/12/16 08:08:44;;;;;;;19.42;5.70;;;;;;;5.16;100.00;103859.44;5068473;28;20063;-82
2023/12/16 08:11:10;;;;;;;17.60;5.60;;;;;;;5.19;100.00;103864.66;5069571;28;20020;-82
2023/12/16 08:13:36;;;;;;;19.42;5.50;;;;;;;5.22;100.00;103867.28;5067445;28;20032;-82
2023/12/16 08:16:04;;;;;;;15.95;4.95;;;;;;;5.23;100.00;103877.72;5052405;28;20527;-82
2023/12/16 08:18:31;;;;;;;20.17;5.35;;;;;;;5.25;100.00;103873.34;5052916;28;20039;-82
2023/12/16 08:20:56;;;;;;;21.85;5.53;;;;;;;5.26;100.00;103876.84;5060519;28;20115;-82
2023/12/16 08:23:21;;;;;;;25.05;6.60;;;;;;;5.28;100.00;103877.69;5067625;28;20132;-82
2023/12/16 08:25:47;;;;;;;19.13;5.32;;;;;;;5.30;100.00;103874.22;5067728;28;20032;-82
2023/12/16 08:28:13;;;;;;;18.88;4.70;;;;;;;5.32;100.00;103876.81;5068500;28;20032;-82
2023/12/16 08:30:38;;;;;;;22.90;5.50;;;;;;;5.37;100.00;103884.63;5058715;28;20026;-82
2023/12/16 08:33:03;;;;;;;19.48;5.25;;;;;;;5.43;100.00;103888.06;5059633;28;20052;-81
2023/12/16 08:35:29;;;;;;;16.80;5.20;;;;;;;5.53;100.00;103884.56;5069483;28;20055;-81
2023/12/16 08:37:55;;;;;;;16.02;5.10;;;;;;;5.64;100.00;103884.53;5069554;28;20013;-81
2023/12/16 08:40:21;;;;;;;17.10;4.85;;;;;;;5.73;100.00;103875.78;5069396;28;20040;-82
2023/12/16 08:42:46;;;;;;;21.42;5.20;;;;;;;5.80;100.00;103882.69;5068280;28;20037;-81
2023/12/16 08:45:13;;;;;;;18.30;5.20;;;;;;;5.85;100.00;103878.31;5067009;28;20029;-81
2023/12/16 08:47:39;;;;;;;16.95;4.88;;;;;;;5.92;100.00;103874.81;5069699;28;20146;-81
2023/12/16 08:50:06;;;;;;;17.33;4.70;;;;;;;5.97;100.00;103878.25;5069184;28;20111;-81
2023/12/16 08:52:31;;;;;;;20.85;5.40;;;;;;;6.05;100.00;103886.09;5054058;28;20028;-81
2023/12/16 08:55:00;;;;;;;17.67;5.28;;;;;;;6.11;100.00;103872.97;5049735;28;20373;-82
2023/12/16 08:57:27;;;;;;;22.42;5.43;;;;;;;6.16;100.00;103876.41;5055384;28;20020;-82
2023/12/16 08:59:53;;;;;;;19.00;5.82;;;;;;;6.20;100.00;103868.53;5049122;28;20028;-82
2023/12/16 09:02:18;;;;;;;21.65;5.80;;;;;;;6.24;100.00;103862.41;5047149;28;20416;-82
2023/12/16 09:04:44;;;;;;;19.13;5.30;;;;;;;6.29;100.00;103863.25;5063229;28;20058;-81
2023/12/16 09:07:09;;;;;;;21.02;5.38;;;;;;;6.36;100.00;103865.81;5067514;28;20480;-81
2023/12/16 09:09:35;;;;;;;22.65;6.07;;;;;;;6.39;100.00;103876.25;5066970;28;20028;-82
2023/12/16 09:12:00;;;;;;;16.45;5.03;;;;;;;6.46;100.00;103885.78;5061570;28;20036;-81
2023/12/16 09:14:25;;;;;;;19.00;5.78;;;;;;;6.50;100.00;103885.75;5064337;28;20024;-81
2023/12/16 09:16:51;;;;;;;19.83;5.32;;;;;;;6.55;100.00;103885.72;5066909;28;21032;-82
2023/12/16 09:19:16;;;;;;;23.42;5.60;;;;;;;6.59;100.00;103890.03;5061655;28;20507;-82
2023/12/16 09:21:42;;;;;;;18.30;5.35;;;;;;;6.62;100.00;103884.78;5068392;28;20492;-82
2023/12/16 09:24:08;;;;;;;18.45;5.80;;;;;;;6.65;100.00;103884.75;5068130;28;20167;-83
2023/12/16 09:26:33;;;;;;;18.92;5.18;;;;;;;6.72;100.00;103891.66;5066260;28;20024;-81
2023/12/16 09:29:01;;;;;;;19.95;5.45;;;;;;;6.77;100.00;103891.63;5067832;28;20575;-81
2023/12/16 09:31:29;;;;;;;19.42;5.78;;;;;;;6.80;100.00;103895.06;5066123;28;20127;-82
2023/12/16 09:33:55;;;;;;;20.60;5.45;;;;;;;6.84;100.00;103894.19;5067300;28;20110;-82
2023/12/16 09:36:26;;;;;;;18.80;5.70;;;;;;;6.88;100.00;103898.50;5067839;28;20064;-81
2023/12/16 09:38:52;;;;;;;18.70;5.40;;;;;;;6.95;100.00;103909.78;5068388;28;20557;-81
2023/12/16 09:41:23;;;;;;;17.52;5.18;;;;;;;6.99;100.00;103910.63;5067006;28;20134;-82
2023/12/16 09:43:53;;;;;;;20.45;5.43;;;;;;;7.02;100.00;103906.22;5066892;28;20033;-82
2023/12/16 09:46:20;;;;;;;18.38;5.38;;;;;;;7.05;100.00;103905.31;5067996;28;20125;-82
2023/12/16 09:48:46;;;;;;;20.27;5.70;;;;;;;7.11;100.00;103894.78;5068762;28;20027;-82
2023/12/16 09:51:11;;;;;;;20.90;6.05;;;;;;;7.15;100.00;103902.56;5068203;28;20050;-81
2023/12/16 09:53:37;;;;;;;15.88;5.07;;;;;;;7.20;100.00;103916.53;5068186;28;20036;-81
2023/12/16 09:56:02;;;;;;;22.65;6.28;;;;;;;7.24;100.00;103909.50;5067885;28;20028;-81
2023/12/16 09:58:32;;;;;;;20.48;5.70;;;;;;;7.27;100.00;103906.84;5068820;28;20032;-82
2023/12/16 10:00:59;;;;;;;27.27;6.40;;;;;;;7.31;100.00;103908.53;5067642;28;20392;-79
2023/12/16 10:03:24;;;;;;;17.30;6.03;;;;;;;7.35;100.00;103909.38;5068724;28;20101;-81
2023/12/16 10:05:50;;;;;;;21.02;5.95;;;;;;;7.42;100.00;103913.66;5066615;28;20060;-82
2023/12/16 10:08:15;;;;;;;21.25;6.20;;;;;;;7.46;100.00;103913.59;5064488;28;20458;-81
2023/12/16 10:10:42;;;;;;;15.50;5.65;;;;;;;7.51;100.00;103918.78;5068879;28;20056;-82
2023/12/16 10:13:08;;;;;;;20.75;6.30;;;;;;;7.54;100.00;103916.97;5068026;28;20086;-81
2023/12/16 10:15:34;;;;;;;22.33;7.00;;;;;;;7.60;100.00;103917.78;5067012;28;20028;-82
2023/12/16 10:18:01;;;;;;;21.80;6.88;;;;;;;7.65;100.00;103918.63;5068146;28;20484;-81
2023/12/16 10:20:27;;;;;;;21.60;7.20;;;;;;;7.68;100.00;103915.97;5072436;28;20131;-81
2023/12/16 10:22:53;;;;;;;23.83;7.93;;;;;;;7.71;100.00;103927.28;5070514;28;20520;-82
2023/12/16 10:25:18;;;;;;;19.33;7.00;;;;;;;7.73;100.00;103924.63;5071425;28;20071;-81
2023/12/16 10:27:44;;;;;;;24.20;7.38;;;;;;;7.76;100.00;103914.09;5072050;28;20024;-81
2023/12/16 10:30:10;;;;;;;24.02;7.95;;;;;;;7.79;100.00;103919.31;5071618;28;20017;-81
2023/12/16 10:32:40;;;;;;;22.13;7.30;;;;;;;7.82;100.00;103916.66;5071416;28;20594;-82
2023/12/16 10:35:07;;;;;;;21.27;7.38;;;;;;;7.84;100.00;103915.75;5069873;28;20052;-81
2023/12/16 10:37:33;;;;;;;21.30;7.10;;;;;;;7.89;100.00;103917.44;5069012;28;20039;-81
2023/12/16 10:39:58;;;;;;;19.83;7.38;;;;;;;7.92;100.00;103914.75;5069680;28;20384;-80
2023/12/16 10:42:24;;;;;;;18.60;7.22;;;;;;;7.93;100.00;103914.75;5070399;28;20036;-81
2023/12/16 10:44:52;;;;;;;22.40;7.53;;;;;;;7.96;100.00;103912.06;5070689;28;20025;-81
2023/12/16 10:47:18;;;;;;;16.85;6.88;;;;;;;7.99;100.00;103912.03;5068619;28;20044;-82
2023/12/16 10:49:45;;;;;;;20.38;7.57;;;;;;;8.02;100.00;103904.16;5071103;28;20021;-82
2023/12/16 10:52:18;;;;;;;21.35;7.03;;;;;;;8.04;100.00;103905.00;5070640;28;20028;-81
2023/12/16 10:54:53;;;;;;;21.65;7.70;;;;;;;8.03;100.00;103911.13;5069268;28;20032;-81
2023/12/16 10:57:21;;;;;;;22.80;7.50;;;;;;;8.05;100.00;103904.09;5063564;28;20033;-83
2023/12/16 11:00:07;;;;;;;24.58;7.90;;;;;;;8.11;100.00;103904.00;5064710;28;20025;-82
2023/12/16 11:02:42;;;;;;;21.65;7.47;;;;;;;8.10;100.00;103894.41;5068615;28;20041;-82
2023/12/16 11:05:18;;;;;;;22.00;7.15;;;;;;;8.12;100.00;103894.38;5069076;28;20028;-82
2023/12/16 11:07:44;;;;;;;21.00;7.82;;;;;;;8.15;100.00;103891.72;5057285;28;20021;-81
2023/12/16 11:10:10;;;;;;;20.65;7.80;;;;;;;8.16;100.00;103896.94;5069655;28;20024;-81